Portada
METAR-TAF:

METAR-TAF

Aeroports :

Coningsby, Anglaterra

latitud: 53-05N, longitud: 000-10W, altitud: 7 m

Observació

L'informe es va fer fa 1 hora i 3 minuts, a les 18:50 UTC
Vent 7 kt del Est
Temperatura 21°C
Humitat 69%
Pressió 1017 hPa
Visibilitat 10 km o més
sense núvols per sota de 1500 mi sense presència de cumulonimbus.

METAR: EGXC 241850Z 08007KT CAVOK 21/15 Q1017 RMK BLU

Hora: 20:53 (19:53 UTC)

Pronòstic

L'informe es va fer fa 3 hores i 37 minuts, a les 16:16 UTC
Pronòstic vàlid del 24 a les 18 UTC al 25 a les 12 UTC
Vent 5 kt del Est
Visibilitat 10 km o més
sense núvols per sota de 1500 mi sense presència de cumulonimbus.
Probabilitat 30% :
Temporalment
l' 25 a les 03 UTC al 25 a les 07 UTC
Visibilitat: 7000 m
boirina

TAF: EGXC 241616Z 2418/2512 09005KT CAVOK PROB30 TEMPO 2503/2507 7000 BR

Observacions i pronòstics meteorològics de més de 4000 aeroports (METAR i TAF).

Les estacions disponibles són els punts grocs i vermells al mapa.

Posi el ratolí al punt desitjat per veure el nom de l'estació.

Feu clic per veure les observacions i els pronòstics meteorològics.

Per canviar el mapa: feu clic els botons verds amb una creu de color negre per apropar; al botó verd amb un guió per allunyar la imatge; o en les fletxes verdes per a mapes adjacents.


METAR-TAF: